aviador You're here:

KJKL Decoded Metar

NOCTOR/JACKSON in KY, USA
Report Time2018-07-16 08:21:00
UTC Time2018-07-16 08:27:04
Flight Rules ifr IFR
WindCalm
Visibility2816 m
Phenomena:Mist
Clouds:Few 002 Hf
Overcast 110 Hf
Expected CloudBase > 400 ft AGL from Temp-Dew spread
Ceiling11,000 ft
Temp23°C (ISA +11)
Dew Point22°C (94% RH)
QNH1017 hPa
Density Alt2,828 ft
Elevation1,365 ft
Report Wrong Elevation
Raw Report
KJKL 160821Z AUTO 00000KT 1 3/4SM BR FEW002 OVC110 23/22 A3004 RMK
AO2 T02280217=

Extra information for KJKL:More info

Metar Taf Metar & Taf Last 4 Metars F.Rules Stats Wind Profile Meteogram Temp Stats Airport Information Weather charts Add Link Nearby VenuesMetar ALERT Operation Metar Decoded Social comments

AIRNAV info for KJKL